createdAt,value
2023-03-10T00:01:19.264Z,12.88
2023-03-10T00:03:47.789Z,12.98
2023-03-10T00:06:16.865Z,12.98
2023-03-10T00:08:46.141Z,12.97
2023-03-10T00:11:14.544Z,12.89
2023-03-10T00:13:44.597Z,12.96
2023-03-10T00:16:22.777Z,13.03
2023-03-10T00:18:53.282Z,13.00
2023-03-10T00:21:23.084Z,13.11
2023-03-10T00:23:54.718Z,12.99
2023-03-10T00:26:23.005Z,12.97
2023-03-10T00:28:51.778Z,12.98
2023-03-10T00:31:20.886Z,12.98
2023-03-10T00:33:49.691Z,12.99
2023-03-10T00:36:25.752Z,12.92
2023-03-10T00:38:54.630Z,12.92
2023-03-10T00:41:24.021Z,12.89
2023-03-10T00:43:52.638Z,12.78
2023-03-10T00:46:21.202Z,12.82
2023-03-10T00:48:49.753Z,12.74
2023-03-10T00:51:18.485Z,12.95
2023-03-10T00:53:46.889Z,13.05
2023-03-10T00:56:16.981Z,13.04
2023-03-10T00:58:46.234Z,13.07
2023-03-10T01:01:15.822Z,12.87
2023-03-10T01:03:44.418Z,12.78
2023-03-10T01:06:13.525Z,12.84
2023-03-10T01:08:42.715Z,13.02
2023-03-10T01:11:12.881Z,12.95
2023-03-10T01:13:41.273Z,12.95
2023-03-10T01:16:09.682Z,13.15
2023-03-10T01:18:39.202Z,13.07
2023-03-10T01:21:07.425Z,13.18
2023-03-10T01:23:35.611Z,13.14
2023-03-10T01:26:04.143Z,13.22
2023-03-10T01:28:32.965Z,13.19
2023-03-10T01:31:01.905Z,13.01
2023-03-10T01:33:31.795Z,13.12
2023-03-10T01:36:00.506Z,13.21
2023-03-10T01:38:28.726Z,13.06
2023-03-10T01:40:57.310Z,12.96
2023-03-10T01:43:26.668Z,13.03
2023-03-10T01:46:01.880Z,13.13
2023-03-10T01:48:33.207Z,13.09
2023-03-10T01:51:01.704Z,13.26
2023-03-10T01:53:30.910Z,13.09
2023-03-10T01:56:00.901Z,12.95
2023-03-10T01:58:34.836Z,12.94
2023-03-10T02:01:03.247Z,12.90
2023-03-10T02:03:52.701Z,12.78
2023-03-10T02:06:21.435Z,12.97
2023-03-10T02:08:53.976Z,12.81
2023-03-10T02:11:22.376Z,12.92
2023-03-10T02:13:53.748Z,12.85
2023-03-10T02:16:24.267Z,12.84
2023-03-10T02:18:52.676Z,12.51
2023-03-10T02:21:35.714Z,12.28
2023-03-10T02:24:04.260Z,12.47
2023-03-10T02:26:35.741Z,12.47
2023-03-10T02:29:05.148Z,12.53
2023-03-10T02:31:33.618Z,12.59
2023-03-10T02:34:02.288Z,12.51
2023-03-10T02:36:30.580Z,12.06
2023-03-10T02:38:58.866Z,11.96
2023-03-10T02:41:29.565Z,11.95
2023-03-10T02:44:00.258Z,11.81
2023-03-10T02:46:31.044Z,11.85
2023-03-10T02:49:02.617Z,11.90
2023-03-10T02:51:42.230Z,12.30
2023-03-10T02:54:13.225Z,12.29
2023-03-10T02:56:43.133Z,12.36
2023-03-10T02:59:12.432Z,12.15
2023-03-10T03:01:48.760Z,11.81
2023-03-10T03:04:19.043Z,11.76
2023-03-10T03:06:47.879Z,11.80
2023-03-10T03:09:17.272Z,11.73
2023-03-10T03:11:48.116Z,11.64
2023-03-10T03:14:19.797Z,11.63
2023-03-10T03:16:50.274Z,11.56
2023-03-10T03:19:20.401Z,11.62
2023-03-10T03:21:59.139Z,11.64
2023-03-10T03:24:29.280Z,11.62
2023-03-10T03:26:57.670Z,11.62
2023-03-10T03:29:28.151Z,11.60
2023-03-10T03:31:56.586Z,11.69
2023-03-10T03:34:28.577Z,11.62
2023-03-10T03:36:59.037Z,11.52
2023-03-10T03:39:33.251Z,11.48
2023-03-10T03:42:03.702Z,11.57
2023-03-10T03:44:36.838Z,11.58
2023-03-10T03:47:05.797Z,11.63
2023-03-10T03:49:35.673Z,11.66
2023-03-10T03:52:04.684Z,11.59
2023-03-10T03:54:33.303Z,11.64
2023-03-10T03:57:01.749Z,11.63
2023-03-10T03:59:30.399Z,11.67
2023-03-10T04:01:59.408Z,11.68
2023-03-10T04:04:28.003Z,11.67
2023-03-10T04:06:56.878Z,11.76
2023-03-10T04:09:25.302Z,11.73
2023-03-10T04:11:54.127Z,11.77
2023-03-10T04:14:23.131Z,11.81
2023-03-10T04:16:52.170Z,11.82
2023-03-10T04:19:22.856Z,11.89
2023-03-10T04:21:53.545Z,11.88
2023-03-10T04:24:22.074Z,11.88
2023-03-10T04:26:51.031Z,11.90
2023-03-10T04:29:19.697Z,11.93
2023-03-10T04:32:04.925Z,12.09
2023-03-10T04:34:37.613Z,12.36
2023-03-10T04:37:06.173Z,12.59
2023-03-10T04:39:35.925Z,12.78
2023-03-10T04:42:04.955Z,12.95
2023-03-10T04:44:34.116Z,13.27
2023-03-10T04:47:04.036Z,13.45
2023-03-10T04:49:33.168Z,13.61
2023-03-10T04:52:04.304Z,13.68
2023-03-10T04:54:32.783Z,13.71
2023-03-10T04:57:04.107Z,13.72
2023-03-10T04:59:32.888Z,13.76
2023-03-10T05:02:02.644Z,13.73
2023-03-10T05:04:31.985Z,13.73
2023-03-10T05:07:00.529Z,13.76
2023-03-10T05:09:34.895Z,13.72
2023-03-10T05:12:04.137Z,13.64
2023-03-10T05:14:36.848Z,13.66
2023-03-10T05:17:05.263Z,13.76
2023-03-10T05:19:35.010Z,13.91
2023-03-10T05:22:04.673Z,13.94
2023-03-10T05:24:34.895Z,13.99
2023-03-10T05:27:03.406Z,13.98
2023-03-10T05:29:34.604Z,14.09
2023-03-10T05:32:09.027Z,14.18
2023-03-10T05:34:39.949Z,14.25
2023-03-10T05:37:08.556Z,14.29
2023-03-10T05:39:37.081Z,14.39
2023-03-10T05:42:08.689Z,14.46
2023-03-10T05:44:37.243Z,14.55
2023-03-10T05:47:09.574Z,14.61
2023-03-10T05:49:38.958Z,14.67
2023-03-10T05:52:07.912Z,14.70
2023-03-10T05:54:37.389Z,14.70
2023-03-10T05:57:06.735Z,14.59
2023-03-10T05:59:35.798Z,14.59
2023-03-10T06:02:04.147Z,15.31
2023-03-10T06:04:33.513Z,16.26
2023-03-10T06:07:02.810Z,17.15
2023-03-10T06:09:31.789Z,18.05
2023-03-10T06:12:06.572Z,18.90
2023-03-10T06:14:35.675Z,19.69
2023-03-10T06:17:04.217Z,20.39
2023-03-10T06:19:35.764Z,20.93
2023-03-10T06:22:04.395Z,21.58
2023-03-10T06:24:32.778Z,22.20
2023-03-10T06:27:02.017Z,22.45
2023-03-10T06:29:30.601Z,22.40
2023-03-10T06:31:59.799Z,22.15
2023-03-10T06:34:28.639Z,22.24
2023-03-10T06:36:57.009Z,22.36
2023-03-10T06:39:29.113Z,22.43
2023-03-10T06:41:57.575Z,22.54
2023-03-10T06:44:25.666Z,22.84
2023-03-10T06:46:55.010Z,23.20
2023-03-10T06:49:23.484Z,23.59
2023-03-10T06:51:52.044Z,23.97
2023-03-10T06:54:20.490Z,24.10
2023-03-10T06:56:49.444Z,24.56
2023-03-10T06:59:19.732Z,25.23
2023-03-10T07:01:48.560Z,25.70
2023-03-10T07:04:17.094Z,26.21
2023-03-10T07:06:48.737Z,26.23
2023-03-10T07:09:21.764Z,26.39
2023-03-10T07:11:51.020Z,26.83
2023-03-10T07:14:19.424Z,27.07
2023-03-10T07:16:47.678Z,27.30
2023-03-10T07:19:15.880Z,27.25
2023-03-10T07:21:44.571Z,27.31
2023-03-10T07:24:14.581Z,27.72
2023-03-10T07:26:45.674Z,28.01
2023-03-10T07:29:14.445Z,27.99
2023-03-10T07:31:44.695Z,28.21
2023-03-10T07:34:14.157Z,28.62
2023-03-10T07:36:46.871Z,28.94
2023-03-10T07:39:15.202Z,28.93
2023-03-10T07:41:43.928Z,28.87
2023-03-10T07:44:13.028Z,28.66
2023-03-10T07:46:42.143Z,28.42
2023-03-10T07:49:10.780Z,28.61
2023-03-10T07:51:39.687Z,28.91
2023-03-10T07:54:08.015Z,28.98
2023-03-10T07:56:38.912Z,29.31
2023-03-10T07:59:07.501Z,29.97
2023-03-10T08:01:35.912Z,30.05
2023-03-10T08:04:05.355Z,29.35
2023-03-10T08:06:35.780Z,28.90
2023-03-10T08:09:04.469Z,28.38
2023-03-10T08:11:33.516Z,28.09
2023-03-10T08:14:02.600Z,27.24
2023-03-10T08:16:31.084Z,26.47
2023-03-10T08:18:59.522Z,26.20
2023-03-10T08:21:27.749Z,26.01
2023-03-10T08:23:56.384Z,25.45
2023-03-10T08:26:24.835Z,25.08
2023-03-10T08:28:53.218Z,24.60
2023-03-10T08:31:21.693Z,24.50
2023-03-10T08:33:50.832Z,24.35
2023-03-10T08:36:23.171Z,24.32
2023-03-10T08:38:52.442Z,24.52
2023-03-10T08:41:25.427Z,24.51
2023-03-10T08:43:56.196Z,24.34
2023-03-10T08:46:25.273Z,23.64
2023-03-10T08:48:54.021Z,22.88
2023-03-10T08:51:22.474Z,22.89
2023-03-10T08:53:51.411Z,23.05
2023-03-10T08:56:20.479Z,23.70
2023-03-10T08:58:49.238Z,24.34
2023-03-10T09:01:18.750Z,24.85
2023-03-10T09:03:47.814Z,25.09
2023-03-10T09:06:16.135Z,25.05
2023-03-10T09:08:44.593Z,25.04
2023-03-10T09:11:21.547Z,24.36
2023-03-10T09:13:50.004Z,23.80
2023-03-10T09:16:19.653Z,23.39
2023-03-10T09:18:49.198Z,23.02
2023-03-10T09:21:17.909Z,22.90
2023-03-10T09:23:47.651Z,22.73
2023-03-10T09:26:16.421Z,22.51
2023-03-10T09:28:51.270Z,22.21
2023-03-10T09:31:23.707Z,22.03
2023-03-10T09:33:53.414Z,22.02
2023-03-10T09:36:25.010Z,21.82
2023-03-10T09:38:53.853Z,21.74
2023-03-10T09:41:41.631Z,21.63
2023-03-10T09:44:38.564Z,21.53
2023-03-10T09:47:20.285Z,21.44
2023-03-10T09:49:55.618Z,21.08
2023-03-10T09:52:33.840Z,21.10
2023-03-10T09:55:06.704Z,21.34
2023-03-10T09:57:35.853Z,21.52
2023-03-10T10:00:08.961Z,21.90
2023-03-10T10:02:41.932Z,22.27
2023-03-10T10:05:17.246Z,22.18
2023-03-10T10:07:50.117Z,22.30
2023-03-10T10:10:19.876Z,22.24
2023-03-10T10:12:49.376Z,22.16
2023-03-10T10:15:19.118Z,22.08
2023-03-10T10:18:18.431Z,21.76
2023-03-10T10:20:57.026Z,21.30
2023-03-10T10:23:29.238Z,21.25
2023-03-10T10:26:02.750Z,21.11
2023-03-10T10:28:39.325Z,20.92
2023-03-10T10:31:15.706Z,20.93
2023-03-10T10:33:52.741Z,21.43
2023-03-10T10:36:21.225Z,21.60
2023-03-10T10:38:53.065Z,21.73
2023-03-10T10:41:26.077Z,21.98
2023-03-10T10:43:55.836Z,21.99
2023-03-10T10:46:26.214Z,21.78
2023-03-10T10:49:04.898Z,21.24
2023-03-10T10:51:36.514Z,21.21
2023-03-10T10:54:28.865Z,21.46
2023-03-10T10:56:58.645Z,21.61
2023-03-10T10:59:35.390Z,21.68
2023-03-10T11:02:04.808Z,21.78
2023-03-10T11:04:42.690Z,21.69
2023-03-10T11:07:14.145Z,21.65
2023-03-10T11:09:49.152Z,21.45
2023-03-10T11:12:22.316Z,21.45
2023-03-10T11:15:20.636Z,21.31
2023-03-10T11:17:52.822Z,21.14
2023-03-10T11:20:37.452Z,21.16
2023-03-10T11:23:18.570Z,21.08
2023-03-10T11:25:50.851Z,20.60
2023-03-10T11:28:20.051Z,20.55
2023-03-10T11:31:26.685Z,20.39
2023-03-10T11:34:04.781Z,19.92
2023-03-10T11:36:55.141Z,19.66
2023-03-10T11:39:27.657Z,19.60
2023-03-10T11:41:59.829Z,19.57
2023-03-10T11:44:32.351Z,19.41
2023-03-10T11:47:03.962Z,19.18
2023-03-10T11:49:49.742Z,18.95
2023-03-10T11:52:19.826Z,19.08
2023-03-10T11:54:49.198Z,19.15
2023-03-10T11:57:19.871Z,19.15
2023-03-10T11:59:59.140Z,19.10
2023-03-10T12:02:41.716Z,19.06
2023-03-10T12:05:25.603Z,19.14
2023-03-10T12:07:58.927Z,19.17
2023-03-10T12:14:24.604Z,19.49
2023-03-10T12:16:53.381Z,19.72
2023-03-10T12:19:21.861Z,19.77
2023-03-10T12:22:33.905Z,19.63
2023-03-10T12:25:02.855Z,19.32
2023-03-10T12:27:32.273Z,19.63
2023-03-10T12:30:02.597Z,19.84
2023-03-10T12:32:47.801Z,19.72
2023-03-10T12:35:40.585Z,19.68
2023-03-10T12:38:30.029Z,19.65
2023-03-10T12:40:58.994Z,19.69
2023-03-10T12:43:44.410Z,19.72
2023-03-10T12:46:15.872Z,19.59
2023-03-10T12:48:50.971Z,19.13
2023-03-10T12:51:20.150Z,19.07
2023-03-10T12:53:59.238Z,19.06
2023-03-10T12:56:33.266Z,19.12
2023-03-10T12:59:10.174Z,19.10
2023-03-10T13:01:49.467Z,18.94
2023-03-10T13:04:29.127Z,18.75
2023-03-10T13:07:04.448Z,18.72
2023-03-10T13:09:39.354Z,18.59
2023-03-10T13:12:21.015Z,18.50
2023-03-10T13:14:57.595Z,18.47
2023-03-10T13:17:27.152Z,18.44
2023-03-10T13:19:59.510Z,18.37
2023-03-10T13:22:27.973Z,18.34
2023-03-10T13:25:06.655Z,17.93
2023-03-10T13:27:35.984Z,17.78
2023-03-10T13:30:06.431Z,17.61
2023-03-10T13:32:38.998Z,17.56
2023-03-10T13:35:37.657Z,17.53
2023-03-10T13:38:11.060Z,17.26
2023-03-10T13:40:49.881Z,16.93
2023-03-10T13:43:38.894Z,16.83
2023-03-10T13:46:13.371Z,16.77
2023-03-10T13:48:41.766Z,16.74
2023-03-10T13:51:26.713Z,16.67
2023-03-10T13:53:56.240Z,16.35
2023-03-10T13:56:25.717Z,16.14
2023-03-10T13:58:55.252Z,16.08
2023-03-10T14:01:27.349Z,15.99
2023-03-10T14:04:06.090Z,15.93
2023-03-10T14:06:37.184Z,15.81
2023-03-10T14:09:13.800Z,15.74
2023-03-10T14:11:43.250Z,15.42
2023-03-10T14:14:11.880Z,15.12
2023-03-10T14:16:57.066Z,15.09
2023-03-10T14:19:45.809Z,15.03
2023-03-10T14:22:36.014Z,14.85
2023-03-10T14:25:08.662Z,14.75
2023-03-10T14:27:37.544Z,14.56
2023-03-10T14:30:35.815Z,14.59
2023-03-10T14:33:06.202Z,14.55
2023-03-10T14:35:34.814Z,14.50
2023-03-10T14:38:03.154Z,14.50
2023-03-10T14:40:31.607Z,14.47
2023-03-10T14:43:00.878Z,14.41
2023-03-10T14:45:31.440Z,14.41
2023-03-10T14:48:21.802Z,14.39
2023-03-10T14:50:51.003Z,14.31
2023-03-10T14:53:20.840Z,14.20
2023-03-10T14:55:56.471Z,14.09
2023-03-10T14:58:28.429Z,14.06
2023-03-10T15:00:56.785Z,13.89
2023-03-10T15:03:25.393Z,13.70
2023-03-10T15:05:53.854Z,13.65
2023-03-10T15:08:30.433Z,13.58
2023-03-10T15:11:00.197Z,13.46
2023-03-10T15:13:29.450Z,13.44
2023-03-10T15:16:01.346Z,13.20
2023-03-10T15:18:30.842Z,12.96
2023-03-10T15:21:00.775Z,12.77
2023-03-10T15:23:35.007Z,12.75
2023-03-10T15:26:09.827Z,12.75
2023-03-10T15:28:38.511Z,12.69
2023-03-10T15:31:07.077Z,12.58
2023-03-10T15:33:35.778Z,12.54
2023-03-10T15:36:06.460Z,12.42
2023-03-10T15:38:35.999Z,12.34
2023-03-10T15:41:05.907Z,12.33
2023-03-10T15:43:34.806Z,12.30
2023-03-10T15:46:07.075Z,12.23
2023-03-10T15:48:37.152Z,12.13
2023-03-10T15:51:09.817Z,12.00
2023-03-10T15:53:38.518Z,11.95
2023-03-10T15:56:07.722Z,11.85
2023-03-10T15:58:36.449Z,11.83
2023-03-10T16:01:09.134Z,11.82
2023-03-10T16:03:37.825Z,11.81
2023-03-10T16:06:09.793Z,11.72
2023-03-10T16:08:39.059Z,11.61
2023-03-10T16:11:11.922Z,11.55
2023-03-10T16:13:41.381Z,11.53
2023-03-10T16:16:10.617Z,11.52
2023-03-10T16:18:39.153Z,11.48
2023-03-10T16:21:07.648Z,11.42
2023-03-10T16:23:38.195Z,11.40
2023-03-10T16:26:13.878Z,11.43
2023-03-10T16:28:45.331Z,11.42
2023-03-10T16:31:14.385Z,11.43
2023-03-10T16:33:45.542Z,11.29
2023-03-10T16:36:15.108Z,11.21
2023-03-10T16:38:43.521Z,11.13
2023-03-10T16:41:11.780Z,11.05
2023-03-10T16:43:40.480Z,11.05
2023-03-10T16:46:08.783Z,11.09
2023-03-10T16:48:44.747Z,11.12
2023-03-10T16:51:29.945Z,11.08
2023-03-10T16:54:02.708Z,11.07
2023-03-10T16:56:31.370Z,11.07
2023-03-10T16:59:00.221Z,11.15
2023-03-10T17:01:28.794Z,11.08
2023-03-10T17:03:57.668Z,11.05
2023-03-10T17:06:28.134Z,11.01
2023-03-10T17:08:58.398Z,10.93
2023-03-10T17:11:28.352Z,10.89
2023-03-10T17:14:03.502Z,10.84
2023-03-10T17:16:32.858Z,10.85
2023-03-10T17:19:02.378Z,10.84
2023-03-10T17:21:36.084Z,10.86
2023-03-10T17:24:05.740Z,10.85
2023-03-10T17:26:35.405Z,10.78
2023-03-10T17:29:04.212Z,10.71
2023-03-10T17:31:36.931Z,10.69
2023-03-10T17:34:07.073Z,10.63
2023-03-10T17:36:35.624Z,10.65
2023-03-10T17:39:05.819Z,10.59
2023-03-10T17:41:34.808Z,10.54
2023-03-10T17:44:07.280Z,10.45
2023-03-10T17:46:41.230Z,10.41
2023-03-10T17:49:11.624Z,10.37
2023-03-10T17:51:43.817Z,10.36
2023-03-10T17:54:12.985Z,10.29
2023-03-10T17:56:42.330Z,10.23
2023-03-10T17:59:13.334Z,10.28
2023-03-10T18:01:43.147Z,10.26
2023-03-10T18:04:14.073Z,10.23
2023-03-10T18:06:43.877Z,10.20
2023-03-10T18:09:34.743Z,10.23
2023-03-10T18:12:03.044Z,10.20
2023-03-10T18:14:31.586Z,10.21
2023-03-10T18:17:01.009Z,10.22
2023-03-10T18:19:31.972Z,10.15
2023-03-10T18:22:08.281Z,10.08
2023-03-10T18:24:43.338Z,10.08
2023-03-10T18:27:12.179Z,10.07
2023-03-10T18:29:40.531Z,9.90
2023-03-10T18:32:09.196Z,9.82
2023-03-10T18:34:40.332Z,9.72
2023-03-10T18:37:08.737Z,9.76
2023-03-10T18:39:40.932Z,9.75
2023-03-10T18:42:10.712Z,9.81
2023-03-10T18:44:39.500Z,9.80
2023-03-10T18:47:08.182Z,9.83
2023-03-10T18:49:36.710Z,9.75
2023-03-10T18:52:05.556Z,9.72
2023-03-10T18:54:34.002Z,9.64
2023-03-10T18:57:02.679Z,9.60
2023-03-10T18:59:31.630Z,9.59
2023-03-10T19:02:00.018Z,9.61
2023-03-10T19:04:28.865Z,9.68
2023-03-10T19:06:57.185Z,9.69
2023-03-10T19:09:29.595Z,9.73
2023-03-10T19:11:59.946Z,9.74
2023-03-10T19:14:28.235Z,9.71
2023-03-10T19:16:57.611Z,9.64
2023-03-10T19:19:28.361Z,9.57
2023-03-10T19:21:58.129Z,9.56
2023-03-10T19:24:26.821Z,9.42
2023-03-10T19:26:55.209Z,9.25
2023-03-10T19:29:23.863Z,9.26
2023-03-10T19:31:56.178Z,9.17
2023-03-10T19:34:25.901Z,9.24
2023-03-10T19:36:54.332Z,9.26
2023-03-10T19:39:24.128Z,9.18
2023-03-10T19:41:53.029Z,9.18
2023-03-10T19:44:23.169Z,9.13
2023-03-10T19:46:52.294Z,9.12
2023-03-10T19:49:24.600Z,9.15
2023-03-10T19:51:53.663Z,9.18
2023-03-10T19:54:22.039Z,9.22
2023-03-10T19:56:50.446Z,9.21
2023-03-10T19:59:18.893Z,9.27
2023-03-10T20:01:49.424Z,9.32
2023-03-10T20:04:18.161Z,9.34
2023-03-10T20:06:46.750Z,9.29
2023-03-10T20:09:19.214Z,9.31
2023-03-10T20:11:47.813Z,9.33
2023-03-10T20:14:16.045Z,9.36
2023-03-10T20:16:45.531Z,9.38
2023-03-10T20:19:14.842Z,9.39
2023-03-10T20:21:43.814Z,9.36
2023-03-10T20:24:13.415Z,9.33
2023-03-10T20:26:42.211Z,9.34
2023-03-10T20:29:11.510Z,9.32
2023-03-10T20:31:40.926Z,9.22
2023-03-10T20:34:12.193Z,9.21
2023-03-10T20:36:40.702Z,9.20
2023-03-10T20:39:10.416Z,9.26
2023-03-10T20:41:39.373Z,9.19
2023-03-10T20:44:14.293Z,9.21
2023-03-10T20:46:43.320Z,9.18
2023-03-10T20:49:11.811Z,9.17
2023-03-10T20:51:40.699Z,9.13
2023-03-10T20:54:09.077Z,9.10
2023-03-10T20:56:38.664Z,9.11
2023-03-10T20:59:08.194Z,9.12
2023-03-10T21:01:40.066Z,9.15
2023-03-10T21:04:08.909Z,9.16
2023-03-10T21:06:37.867Z,9.15
2023-03-10T21:09:07.548Z,9.14
2023-03-10T21:11:36.080Z,9.15
2023-03-10T21:14:06.654Z,9.08
2023-03-10T21:16:39.680Z,9.09
2023-03-10T21:19:13.298Z,9.12
2023-03-10T21:21:42.879Z,9.15
2023-03-10T21:24:11.389Z,9.17
2023-03-10T21:26:44.794Z,9.12
2023-03-10T21:29:12.959Z,9.12
2023-03-10T21:31:41.590Z,9.05
2023-03-10T21:34:10.421Z,9.08
2023-03-10T21:36:38.997Z,9.13
2023-03-10T21:39:09.224Z,9.15
2023-03-10T21:41:37.786Z,9.17
2023-03-10T21:44:07.823Z,9.15
2023-03-10T21:46:38.600Z,9.09
2023-03-10T21:49:07.704Z,9.08
2023-03-10T21:51:37.267Z,8.99
2023-03-10T21:54:06.147Z,8.98
2023-03-10T21:56:38.808Z,8.94
2023-03-10T21:59:07.828Z,8.94
2023-03-10T22:01:37.024Z,8.92
2023-03-10T22:04:05.866Z,8.85
2023-03-10T22:06:34.428Z,8.81
2023-03-10T22:09:05.775Z,8.98
2023-03-10T22:11:34.236Z,8.97
2023-03-10T22:14:04.218Z,8.93
2023-03-10T22:16:32.735Z,8.98
2023-03-10T22:19:01.895Z,8.95
2023-03-10T22:21:30.993Z,8.96
2023-03-10T22:24:00.288Z,8.94
2023-03-10T22:26:30.024Z,8.92
2023-03-10T22:29:00.621Z,8.85
2023-03-10T22:31:28.971Z,8.86
2023-03-10T22:33:57.308Z,8.89
2023-03-10T22:36:25.697Z,8.81
2023-03-10T22:38:54.505Z,8.72
2023-03-10T22:41:23.303Z,8.66
2023-03-10T22:43:51.941Z,8.66
2023-03-10T22:46:20.593Z,8.67
2023-03-10T22:48:49.554Z,8.65
2023-03-10T22:51:18.482Z,8.70
2023-03-10T22:53:50.203Z,8.77
2023-03-10T22:56:18.749Z,8.79
2023-03-10T22:58:47.601Z,8.78
2023-03-10T23:01:15.794Z,8.83
2023-03-10T23:03:44.668Z,8.84
2023-03-10T23:06:15.834Z,8.79
2023-03-10T23:08:47.408Z,8.79
2023-03-10T23:11:15.876Z,8.67
2023-03-10T23:13:45.043Z,8.60
2023-03-10T23:16:18.284Z,8.55
2023-03-10T23:18:47.175Z,8.49
2023-03-10T23:21:15.586Z,8.50
2023-03-10T23:23:48.036Z,8.45
2023-03-10T23:26:16.589Z,8.32
2023-03-10T23:28:47.619Z,8.27
2023-03-10T23:31:17.345Z,8.21
2023-03-10T23:33:45.732Z,8.20
2023-03-10T23:36:14.193Z,8.18
2023-03-10T23:38:43.180Z,8.14
2023-03-10T23:41:11.630Z,8.13
2023-03-10T23:43:40.031Z,8.11
2023-03-10T23:46:10.400Z,8.14
2023-03-10T23:48:39.683Z,8.10
2023-03-10T23:51:16.154Z,8.03
2023-03-10T23:53:46.707Z,8.06
2023-03-10T23:56:16.176Z,8.08
2023-03-10T23:58:44.575Z,8.04
